createdAt,value
2022-09-07T00:01:26.341Z,5.47
2022-09-07T00:03:55.342Z,4.68
2022-09-07T00:06:21.838Z,4.78
2022-09-07T00:08:48.196Z,5.43
2022-09-07T00:11:16.266Z,6.50
2022-09-07T00:13:43.320Z,4.90
2022-09-07T00:16:12.151Z,4.13
2022-09-07T00:18:41.363Z,4.95
2022-09-07T00:21:11.730Z,4.30
2022-09-07T00:23:39.244Z,4.28
2022-09-07T00:26:07.145Z,5.10
2022-09-07T00:28:34.257Z,4.05
2022-09-07T00:31:00.635Z,5.10
2022-09-07T00:33:27.396Z,4.28
2022-09-07T00:35:53.877Z,4.63
2022-09-07T00:38:20.178Z,4.65
2022-09-07T00:40:46.462Z,5.95
2022-09-07T00:43:18.158Z,5.88
2022-09-07T00:45:44.462Z,4.10
2022-09-07T00:48:15.018Z,4.93
2022-09-07T00:50:44.566Z,3.92
2022-09-07T00:53:14.400Z,4.32
2022-09-07T00:55:42.583Z,5.18
2022-09-07T00:58:09.256Z,4.22
2022-09-07T01:00:35.646Z,4.38
2022-09-07T01:03:02.598Z,4.18
2022-09-07T01:05:34.885Z,4.10
2022-09-07T01:08:01.405Z,3.70
2022-09-07T01:10:31.625Z,4.07
2022-09-07T01:12:59.516Z,3.97
2022-09-07T01:15:30.519Z,3.28
2022-09-07T01:18:03.370Z,4.70
2022-09-07T01:20:32.336Z,5.28
2022-09-07T01:23:20.362Z,4.95
2022-09-07T01:25:57.634Z,4.22
2022-09-07T01:28:26.027Z,3.75
2022-09-07T01:30:57.280Z,5.95
2022-09-07T01:33:29.849Z,5.20
2022-09-07T01:35:56.412Z,3.92
2022-09-07T01:38:36.670Z,3.65
2022-09-07T01:41:05.189Z,4.18
2022-09-07T01:43:31.472Z,3.78
2022-09-07T01:45:58.560Z,4.90
2022-09-07T01:48:25.647Z,6.28
2022-09-07T01:50:57.915Z,3.30
2022-09-07T01:53:28.361Z,3.75
2022-09-07T01:56:03.100Z,3.45
2022-09-07T01:58:32.020Z,3.80
2022-09-07T02:01:02.296Z,3.97
2022-09-07T02:03:34.249Z,3.35
2022-09-07T02:06:06.864Z,3.85
2022-09-07T02:08:59.538Z,3.92
2022-09-07T02:11:37.076Z,4.88
2022-09-07T02:14:07.358Z,3.05
2022-09-07T02:16:34.724Z,3.35
2022-09-07T02:19:13.608Z,3.45
2022-09-07T02:21:41.780Z,4.10
2022-09-07T02:24:15.097Z,3.72
2022-09-07T02:26:41.620Z,4.07
2022-09-07T02:29:08.236Z,3.63
2022-09-07T02:31:34.623Z,3.55
2022-09-07T02:34:04.036Z,3.63
2022-09-07T02:36:32.252Z,3.00
2022-09-07T02:38:58.570Z,4.40
2022-09-07T02:41:29.734Z,4.60
2022-09-07T02:43:56.525Z,4.32
2022-09-07T02:46:41.504Z,4.38
2022-09-07T02:49:07.861Z,4.25
2022-09-07T02:51:53.073Z,3.80
2022-09-07T02:54:25.574Z,2.97
2022-09-07T02:57:01.009Z,2.63
2022-09-07T02:59:56.733Z,2.30
2022-09-07T03:02:31.452Z,3.35
2022-09-07T03:05:36.476Z,2.78
2022-09-07T03:08:05.634Z,3.35
2022-09-07T03:10:32.576Z,2.90
2022-09-07T03:12:58.894Z,2.97
2022-09-07T03:15:26.552Z,4.10
2022-09-07T03:17:53.411Z,3.22
2022-09-07T03:20:22.700Z,3.38
2022-09-07T03:22:49.714Z,3.25
2022-09-07T03:25:16.255Z,3.35
2022-09-07T03:27:42.987Z,3.75
2022-09-07T03:30:10.697Z,2.63
2022-09-07T03:32:37.830Z,3.78
2022-09-07T03:35:05.009Z,3.00
2022-09-07T03:37:31.406Z,2.58
2022-09-07T03:39:57.903Z,3.88
2022-09-07T03:42:24.284Z,5.57
2022-09-07T03:44:50.554Z,3.08
2022-09-07T03:47:17.389Z,2.47
2022-09-07T03:49:43.888Z,3.65
2022-09-07T03:52:10.357Z,3.78
2022-09-07T03:54:39.491Z,2.95
2022-09-07T03:57:06.115Z,4.72
2022-09-07T03:59:32.415Z,3.10
2022-09-07T04:01:58.676Z,4.20
2022-09-07T04:04:24.992Z,3.13
2022-09-07T04:06:51.266Z,4.10
2022-09-07T04:09:17.568Z,2.67
2022-09-07T04:11:43.853Z,2.95
2022-09-07T04:14:10.918Z,2.85
2022-09-07T04:16:37.846Z,3.83
2022-09-07T04:19:05.137Z,3.25
2022-09-07T04:21:32.198Z,2.90
2022-09-07T04:23:58.929Z,3.55
2022-09-07T04:26:35.548Z,2.80
2022-09-07T04:29:02.703Z,2.72
2022-09-07T04:31:29.234Z,3.20
2022-09-07T04:33:55.656Z,3.78
2022-09-07T04:36:22.497Z,2.83
2022-09-07T04:38:54.050Z,3.13
2022-09-07T04:41:20.404Z,3.63
2022-09-07T04:43:46.992Z,3.35
2022-09-07T04:46:16.361Z,3.67
2022-09-07T04:48:42.707Z,3.85
2022-09-07T04:51:10.018Z,2.53
2022-09-07T04:53:37.369Z,4.03
2022-09-07T04:56:04.307Z,4.35
2022-09-07T04:58:30.754Z,3.40
2022-09-07T05:01:03.926Z,2.78
2022-09-07T05:03:31.168Z,2.88
2022-09-07T05:06:00.163Z,3.80
2022-09-07T05:08:26.517Z,3.30
2022-09-07T05:10:53.175Z,2.83
2022-09-07T05:13:19.756Z,5.10
2022-09-07T05:15:46.391Z,3.33
2022-09-07T05:18:15.691Z,2.92
2022-09-07T05:20:42.202Z,3.92
2022-09-07T05:23:08.676Z,4.95
2022-09-07T05:25:35.718Z,4.07
2022-09-07T05:28:02.133Z,4.80
2022-09-07T05:33:14.777Z,4.95
2022-09-07T05:35:41.196Z,4.93
2022-09-07T05:38:08.182Z,4.25
2022-09-07T05:40:40.740Z,4.50
2022-09-07T05:43:11.808Z,4.07
2022-09-07T05:45:38.614Z,4.15
2022-09-07T05:48:05.108Z,6.88
2022-09-07T05:50:31.396Z,2.42
2022-09-07T05:52:58.989Z,5.05
2022-09-07T05:55:32.427Z,4.78
2022-09-07T05:57:58.773Z,5.35
2022-09-07T06:00:25.063Z,4.57
2022-09-07T06:02:51.538Z,13.48
2022-09-07T06:05:17.914Z,11.27
2022-09-07T06:07:47.872Z,13.45
2022-09-07T06:13:00.518Z,8.25
2022-09-07T06:15:26.893Z,8.73
2022-09-07T06:17:53.817Z,7.50
2022-09-07T06:20:20.118Z,8.82
2022-09-07T06:22:46.431Z,9.70
2022-09-07T06:25:12.743Z,9.98
2022-09-07T06:27:39.164Z,10.57
2022-09-07T06:30:05.669Z,9.38
2022-09-07T06:32:47.348Z,8.45
2022-09-07T06:35:14.648Z,13.00
2022-09-07T06:37:41.516Z,8.95
2022-09-07T06:40:08.372Z,10.93
2022-09-07T06:42:34.685Z,13.65
2022-09-07T06:45:01.004Z,9.80
2022-09-07T06:47:29.722Z,9.95
2022-09-07T06:49:58.554Z,11.90
2022-09-07T06:52:26.487Z,11.43
2022-09-07T06:55:00.166Z,12.45
2022-09-07T06:57:27.230Z,10.32
2022-09-07T06:59:53.721Z,13.07
2022-09-07T07:02:20.008Z,12.20
2022-09-07T07:04:46.613Z,9.25
2022-09-07T07:07:13.550Z,11.65
2022-09-07T07:09:40.049Z,9.43
2022-09-07T07:12:06.384Z,10.68
2022-09-07T07:14:34.688Z,12.98
2022-09-07T07:17:02.555Z,9.65
2022-09-07T07:19:29.090Z,10.40
2022-09-07T07:24:41.692Z,9.98
2022-09-07T07:27:08.003Z,8.23
2022-09-07T07:29:34.279Z,7.93
2022-09-07T07:32:00.738Z,8.52
2022-09-07T07:34:27.045Z,9.43
2022-09-07T07:36:53.355Z,8.38
2022-09-07T07:42:06.338Z,10.48
2022-09-07T07:44:32.707Z,9.10
2022-09-07T07:46:59.119Z,10.45
2022-09-07T07:49:25.480Z,10.73
2022-09-07T07:54:40.830Z,12.40
2022-09-07T07:57:07.118Z,10.45
2022-09-07T07:59:34.489Z,9.60
2022-09-07T08:02:04.555Z,10.50
2022-09-07T08:04:34.691Z,10.13
2022-09-07T08:07:04.480Z,9.30
2022-09-07T08:09:35.311Z,10.15
2022-09-07T08:12:02.792Z,9.55
2022-09-07T08:14:29.123Z,10.88
2022-09-07T08:16:55.353Z,9.40
2022-09-07T08:19:21.571Z,8.45
2022-09-07T08:21:47.835Z,9.63
2022-09-07T08:24:14.281Z,10.35
2022-09-07T08:26:40.569Z,12.73
2022-09-07T08:29:06.787Z,9.35
2022-09-07T08:31:33.147Z,9.70
2022-09-07T08:33:59.673Z,10.07
2022-09-07T08:36:25.957Z,11.20
2022-09-07T08:38:52.177Z,10.45
2022-09-07T08:41:27.317Z,11.73
2022-09-07T08:43:58.303Z,9.13
2022-09-07T08:46:43.206Z,8.98
2022-09-07T08:49:17.739Z,9.30
2022-09-07T08:51:48.912Z,10.45
2022-09-07T08:54:16.679Z,10.00
2022-09-07T08:57:20.558Z,9.80
2022-09-07T08:59:37.893Z,11.18
2022-09-07T09:10:21.364Z,11.82
2022-09-07T09:12:58.495Z,11.07
2022-09-07T09:15:35.873Z,12.73
2022-09-07T09:18:27.206Z,12.55
2022-09-07T09:20:54.576Z,8.63
2022-09-07T09:23:23.749Z,10.30
2022-09-07T09:25:59.715Z,8.07
2022-09-07T09:28:28.779Z,9.73
2022-09-07T09:30:56.641Z,10.63
2022-09-07T09:33:24.083Z,9.10
2022-09-07T09:35:51.400Z,12.00
2022-09-07T09:38:29.545Z,9.50
2022-09-07T09:40:56.948Z,8.25
2022-09-07T09:43:25.326Z,9.60
2022-09-07T09:48:41.444Z,8.00
2022-09-07T09:53:57.574Z,7.75
2022-09-07T09:56:35.818Z,7.82
2022-09-07T10:05:29.493Z,5.88
2022-09-07T10:07:56.818Z,6.22
2022-09-07T10:10:23.330Z,5.82
2022-09-07T10:12:52.161Z,6.70
2022-09-07T10:15:39.632Z,4.57
2022-09-07T10:18:07.177Z,6.30
2022-09-07T10:20:36.072Z,5.32
2022-09-07T10:23:03.193Z,6.13
2022-09-07T10:25:32.956Z,5.30
2022-09-07T10:28:09.635Z,5.57
2022-09-07T10:30:39.058Z,6.30
2022-09-07T10:33:10.356Z,5.82
2022-09-07T10:35:55.869Z,5.45
2022-09-07T10:38:25.096Z,3.63
2022-09-07T10:41:07.243Z,4.72
2022-09-07T10:43:43.426Z,5.70
2022-09-07T10:49:33.893Z,3.80
2022-09-07T10:52:15.898Z,4.93
2022-09-07T10:54:42.189Z,3.53
2022-09-07T10:57:14.765Z,3.45
2022-09-07T11:02:39.997Z,3.33
2022-09-07T11:05:31.058Z,4.15
2022-09-07T11:08:05.846Z,4.68
2022-09-07T11:10:44.948Z,3.00
2022-09-07T11:13:13.460Z,7.28
2022-09-07T11:15:45.659Z,3.88
2022-09-07T11:18:17.836Z,2.72
2022-09-07T11:20:55.223Z,5.47
2022-09-07T11:23:43.290Z,4.78
2022-09-07T11:26:28.636Z,3.75
2022-09-07T11:31:55.478Z,5.15
2022-09-07T11:34:25.307Z,8.35
2022-09-07T11:36:56.125Z,4.82
2022-09-07T11:39:26.964Z,6.97
2022-09-07T11:42:00.720Z,5.18
2022-09-07T11:44:41.398Z,6.80
2022-09-07T11:47:18.393Z,3.20
2022-09-07T11:49:49.404Z,4.63
2022-09-07T11:52:38.589Z,5.57
2022-09-07T11:55:19.563Z,4.55
2022-09-07T11:57:55.729Z,3.83
2022-09-07T12:00:41.213Z,6.32
2022-09-07T12:03:23.587Z,5.03
2022-09-07T12:06:08.559Z,7.32
2022-09-07T12:08:34.755Z,5.18
2022-09-07T12:11:23.209Z,5.00
2022-09-07T12:14:08.722Z,6.25
2022-09-07T12:16:53.848Z,3.67
2022-09-07T12:19:21.365Z,4.18
2022-09-07T12:21:53.552Z,4.88
2022-09-07T12:24:34.956Z,5.25
2022-09-07T12:27:01.668Z,4.30
2022-09-07T12:29:29.203Z,3.00
2022-09-07T12:32:52.365Z,4.82
2022-09-07T12:34:50.661Z,4.72
2022-09-07T12:37:25.946Z,3.55
2022-09-07T12:40:18.455Z,4.88
2022-09-07T12:42:44.853Z,4.65
2022-09-07T12:45:29.407Z,4.45
2022-09-07T12:48:05.096Z,3.33
2022-09-07T12:53:12.656Z,4.65
2022-09-07T12:58:52.913Z,4.90
2022-09-07T13:01:25.542Z,2.78
2022-09-07T13:03:52.309Z,3.58
2022-09-07T13:09:35.350Z,5.60
2022-09-07T13:12:04.796Z,3.33
2022-09-07T13:14:33.978Z,5.00
2022-09-07T13:17:19.679Z,2.40
2022-09-07T13:19:45.999Z,2.88
2022-09-07T13:22:30.685Z,2.95
2022-09-07T13:24:59.525Z,3.47
2022-09-07T13:27:41.473Z,2.70
2022-09-07T13:30:07.750Z,3.45
2022-09-07T13:35:24.652Z,2.63
2022-09-07T13:37:51.650Z,3.00
2022-09-07T13:40:23.159Z,3.97
2022-09-07T13:42:50.392Z,3.28
2022-09-07T13:45:27.214Z,3.45
2022-09-07T13:47:58.192Z,2.38
2022-09-07T13:50:41.096Z,2.08
2022-09-07T13:53:17.945Z,1.90
2022-09-07T13:55:56.747Z,3.25
2022-09-07T13:58:28.345Z,2.40
2022-09-07T14:00:56.250Z,3.70
2022-09-07T14:03:24.257Z,2.92
2022-09-07T14:06:10.589Z,3.80
2022-09-07T14:08:39.822Z,3.50
2022-09-07T14:11:18.176Z,3.92
2022-09-07T14:13:44.886Z,2.90
2022-09-07T14:16:11.224Z,3.30
2022-09-07T14:18:39.421Z,2.65
2022-09-07T14:21:09.092Z,2.97
2022-09-07T14:23:37.610Z,2.08
2022-09-07T14:26:18.397Z,3.42
2022-09-07T14:28:46.011Z,2.17
2022-09-07T14:31:14.185Z,2.42
2022-09-07T14:33:49.832Z,5.10
2022-09-07T14:36:39.538Z,3.28
2022-09-07T14:39:13.597Z,3.75
2022-09-07T14:41:41.857Z,3.63
2022-09-07T14:44:27.325Z,1.75
2022-09-07T14:46:56.853Z,2.13
2022-09-07T14:49:24.068Z,2.13
2022-09-07T14:51:51.756Z,3.63
2022-09-07T14:54:31.898Z,3.28
2022-09-07T14:57:01.777Z,3.05
2022-09-07T14:59:35.149Z,2.30
2022-09-07T15:02:21.985Z,3.25
2022-09-07T15:04:49.853Z,2.03
2022-09-07T15:07:28.949Z,2.35
2022-09-07T15:09:55.321Z,2.15
2022-09-07T15:12:38.146Z,1.60
2022-09-07T15:15:12.026Z,2.70
2022-09-07T15:17:45.498Z,3.03
2022-09-07T15:20:30.371Z,2.65
2022-09-07T15:22:56.647Z,3.22
2022-09-07T15:25:22.963Z,1.85
2022-09-07T15:27:49.502Z,2.65
2022-09-07T15:30:17.635Z,1.50
2022-09-07T15:32:44.125Z,3.25
2022-09-07T15:35:10.611Z,2.88
2022-09-07T15:40:26.173Z,2.55
2022-09-07T15:43:00.289Z,3.38
2022-09-07T15:45:27.087Z,2.55
2022-09-07T15:47:53.716Z,2.33
2022-09-07T15:50:23.162Z,1.20
2022-09-07T15:52:49.603Z,2.63
2022-09-07T15:55:17.519Z,2.17
2022-09-07T15:57:59.221Z,1.17
2022-09-07T16:00:30.572Z,2.15
2022-09-07T16:03:04.824Z,3.08
2022-09-07T16:05:31.754Z,3.30
2022-09-07T16:10:44.598Z,2.10
2022-09-07T16:13:16.228Z,1.73
2022-09-07T16:15:45.546Z,1.55
2022-09-07T16:18:16.549Z,1.75
2022-09-07T16:20:43.424Z,2.58
2022-09-07T16:23:14.266Z,2.50
2022-09-07T16:25:43.098Z,2.10
2022-09-07T16:28:10.069Z,2.78
2022-09-07T16:30:38.934Z,2.30
2022-09-07T16:33:05.538Z,2.55
2022-09-07T16:35:32.857Z,3.22
2022-09-07T16:40:46.219Z,2.78
2022-09-07T16:43:12.451Z,4.35
2022-09-07T16:51:22.425Z,1.75
2022-09-07T16:56:48.978Z,2.97
2022-09-07T16:59:16.936Z,4.03
2022-09-07T17:01:43.304Z,2.33
2022-09-07T17:04:11.189Z,2.97
2022-09-07T17:06:38.356Z,2.38
2022-09-07T17:09:05.088Z,2.58
2022-09-07T17:11:33.067Z,2.78
2022-09-07T17:14:00.009Z,2.78
2022-09-07T17:16:29.689Z,4.13
2022-09-07T17:21:44.399Z,2.55
2022-09-07T17:24:12.548Z,2.35
2022-09-07T17:26:42.157Z,3.30
2022-09-07T17:29:09.232Z,3.05
2022-09-07T17:34:22.816Z,4.68
2022-09-07T17:36:49.131Z,5.18
2022-09-07T17:39:17.704Z,3.08
2022-09-07T17:41:44.907Z,3.25
2022-09-07T17:44:11.257Z,6.13
2022-09-07T17:46:37.687Z,5.70
2022-09-07T17:49:05.116Z,7.60
2022-09-07T17:51:32.551Z,3.45
2022-09-07T17:54:00.370Z,10.45
2022-09-07T17:56:26.668Z,7.22
2022-09-07T17:58:53.548Z,9.90
2022-09-07T18:01:20.730Z,8.60
2022-09-07T18:03:47.313Z,9.13
2022-09-07T18:06:14.512Z,16.58
2022-09-07T18:08:40.850Z,7.32
2022-09-07T18:13:56.058Z,10.43
2022-09-07T18:16:40.668Z,13.25
2022-09-07T18:19:09.752Z,10.73
2022-09-07T18:21:36.661Z,11.25
2022-09-07T18:24:05.444Z,16.35
2022-09-07T18:26:32.554Z,10.63
2022-09-07T18:29:03.654Z,13.93
2022-09-07T18:31:30.569Z,12.35
2022-09-07T18:33:56.907Z,15.25
2022-09-07T18:36:24.182Z,10.38
2022-09-07T18:38:50.620Z,6.63
2022-09-07T18:41:16.991Z,9.68
2022-09-07T18:43:44.447Z,11.75
2022-09-07T18:46:13.859Z,7.10
2022-09-07T18:48:40.565Z,7.63
2022-09-07T18:51:07.368Z,6.32
2022-09-07T18:53:33.868Z,10.80
2022-09-07T18:56:01.871Z,8.80
2022-09-07T18:58:28.253Z,6.97
2022-09-07T19:00:58.053Z,6.82
2022-09-07T19:03:25.240Z,9.38
2022-09-07T19:05:56.576Z,11.82
2022-09-07T19:08:22.880Z,10.35
2022-09-07T19:10:49.160Z,9.88
2022-09-07T19:13:15.466Z,6.45
2022-09-07T19:15:41.815Z,7.45
2022-09-07T19:18:08.222Z,11.75
2022-09-07T19:20:34.961Z,6.50
2022-09-07T19:23:01.244Z,6.63
2022-09-07T19:25:27.548Z,8.45
2022-09-07T19:27:53.786Z,4.80
2022-09-07T19:30:20.110Z,6.00
2022-09-07T19:32:46.370Z,6.95
2022-09-07T19:35:12.662Z,6.93
2022-09-07T19:37:39.194Z,6.50
2022-09-07T19:40:05.964Z,7.72
2022-09-07T19:42:32.303Z,8.60
2022-09-07T19:45:00.790Z,7.35
2022-09-07T19:47:27.093Z,7.20
2022-09-07T19:49:53.341Z,10.70
2022-09-07T19:52:19.755Z,5.47
2022-09-07T19:54:46.052Z,5.88
2022-09-07T19:57:12.296Z,10.35
2022-09-07T19:59:38.572Z,6.95
2022-09-07T20:02:06.060Z,10.13
2022-09-07T20:04:32.318Z,6.13
2022-09-07T20:06:58.582Z,6.30
2022-09-07T20:09:25.912Z,7.03
2022-09-07T20:11:52.248Z,5.07
2022-09-07T20:14:19.076Z,5.38
2022-09-07T20:16:45.615Z,7.30
2022-09-07T20:19:14.347Z,6.93
2022-09-07T20:21:41.154Z,6.75
2022-09-07T20:24:07.501Z,4.43
2022-09-07T20:26:33.918Z,6.30
2022-09-07T20:31:46.794Z,5.07
2022-09-07T20:34:13.327Z,5.00
2022-09-07T20:36:40.006Z,4.65
2022-09-07T20:39:06.579Z,4.10
2022-09-07T20:41:33.916Z,4.20
2022-09-07T20:44:00.981Z,5.93
2022-09-07T20:46:28.317Z,5.32
2022-09-07T20:48:54.949Z,6.22
2022-09-07T20:51:21.323Z,6.55
2022-09-07T20:53:48.600Z,5.68
2022-09-07T20:56:16.100Z,3.35
2022-09-07T20:58:45.666Z,3.47
2022-09-07T21:01:12.643Z,6.10
2022-09-07T21:03:39.149Z,4.25
2022-09-07T21:06:06.406Z,4.25
2022-09-07T21:08:37.176Z,3.63
2022-09-07T21:11:08.051Z,3.42
2022-09-07T21:13:34.796Z,5.25
2022-09-07T21:16:05.479Z,4.90
2022-09-07T21:18:32.433Z,4.20
2022-09-07T21:21:18.745Z,3.25
2022-09-07T21:23:45.390Z,3.53
2022-09-07T21:26:11.883Z,3.33
2022-09-07T21:28:38.125Z,4.60
2022-09-07T21:31:06.023Z,6.43
2022-09-07T21:33:33.267Z,4.45
2022-09-07T21:36:08.122Z,3.20
2022-09-07T21:38:35.142Z,5.32
2022-09-07T21:41:07.887Z,2.50
2022-09-07T21:43:34.238Z,6.43
2022-09-07T21:46:08.236Z,4.38
2022-09-07T21:48:34.763Z,3.83
2022-09-07T21:51:01.068Z,3.20
2022-09-07T21:53:27.358Z,4.47
2022-09-07T21:56:03.404Z,3.92
2022-09-07T21:58:30.244Z,4.60
2022-09-07T22:00:57.034Z,3.85
2022-09-07T22:03:24.481Z,4.10
2022-09-07T22:05:51.119Z,3.88
2022-09-07T22:08:17.452Z,3.13
2022-09-07T22:10:44.209Z,5.65
2022-09-07T22:13:11.339Z,4.95
2022-09-07T22:15:38.294Z,4.45
2022-09-07T22:18:04.883Z,3.13
2022-09-07T22:20:31.813Z,2.95
2022-09-07T22:22:58.391Z,4.88
2022-09-07T22:25:24.905Z,4.18
2022-09-07T22:27:51.140Z,3.75
2022-09-07T22:30:19.977Z,4.28
2022-09-07T22:32:46.717Z,4.15
2022-09-07T22:35:13.318Z,3.22
2022-09-07T22:37:39.670Z,4.72
2022-09-07T22:40:06.598Z,2.92
2022-09-07T22:42:32.882Z,3.75
2022-09-07T22:44:59.424Z,3.28
2022-09-07T22:47:25.685Z,2.70
2022-09-07T22:49:52.062Z,2.28
2022-09-07T22:52:18.419Z,3.22
2022-09-07T22:54:45.755Z,2.88
2022-09-07T22:57:12.030Z,4.85
2022-09-07T22:59:38.638Z,3.20
2022-09-07T23:02:05.359Z,2.90
2022-09-07T23:04:32.076Z,2.75
2022-09-07T23:06:58.394Z,4.25
2022-09-07T23:09:24.640Z,1.95
2022-09-07T23:11:50.913Z,3.88
2022-09-07T23:14:18.461Z,3.72
2022-09-07T23:16:45.070Z,3.55
2022-09-07T23:19:14.954Z,3.55
2022-09-07T23:21:41.571Z,2.72
2022-09-07T23:24:11.073Z,2.88
2022-09-07T23:26:38.453Z,3.17
2022-09-07T23:29:05.372Z,3.88
2022-09-07T23:31:32.807Z,3.90
2022-09-07T23:33:59.690Z,5.32
2022-09-07T23:36:26.038Z,3.65
2022-09-07T23:38:54.172Z,3.05
2022-09-07T23:41:20.554Z,4.63
2022-09-07T23:43:46.778Z,3.60
2022-09-07T23:46:13.500Z,3.80
2022-09-07T23:48:39.924Z,2.83
2022-09-07T23:51:06.214Z,2.40
2022-09-07T23:53:32.527Z,3.58
2022-09-07T23:55:58.836Z,3.65
2022-09-07T23:58:28.064Z,4.45
